ORB249 LCLK-UBBB
Flight info
| Callsign | ORB249 |
|---|---|
| Flight time | 2h 7m |
| Altitude | 38000 |
| Route | RUDER M13 BAPAX DCT GAZ/N0488F370 UW716 DYB UW73 BAYIR/N0487F390 UM688 ULTED UT36 DERIL UG8 ALRAM G208 UMH A422 PARSU N59 INSAN |
| Aircraft | B772/H-SDE2E3FGHIJ5LORVWXY/LB1D1 |
Departure
| Time | 2025-09-05 10:44 |
|---|---|
| Airport | Larnaca International Airport (LCLK) |
Arrival
| Time | 2025-09-05 12:51 |
|---|---|
| Airport | Heydar Aliyev International Airport (UBBB) |
| Time | Latitude | Longitude | Altitude | Speed | Heading |
|---|---|---|---|---|---|
| 2025-09-05 09:50 | 34.86942 | 33.61133 | 25 ft | 0 kts | 230° |
| 2025-09-05 10:31 | 34.86960 | 33.61157 | 27 ft | 3 kts | 220° |
| 2025-09-05 10:32 | 34.87012 | 33.61186 | 25 ft | 3 kts | 180° |
| 2025-09-05 10:32 | 34.87047 | 33.61175 | 25 ft | 2 kts | 139° |
| 2025-09-05 10:32 | 34.87051 | 33.61171 | 25 ft | 0 kts | 134° |
| 2025-09-05 10:34 | 34.87042 | 33.61182 | 25 ft | 5 kts | 133° |
| 2025-09-05 10:34 | 34.86904 | 33.61350 | 27 ft | 18 kts | 136° |
| 2025-09-05 10:35 | 34.87010 | 33.61584 | 28 ft | 27 kts | 45° |
| 2025-09-05 10:35 | 34.87350 | 33.62002 | 25 ft | 42 kts | 45° |
| 2025-09-05 10:36 | 34.87807 | 33.62561 | 27 ft | 51 kts | 45° |
| 2025-09-05 10:36 | 34.88290 | 33.63154 | 29 ft | 41 kts | 45° |
| 2025-09-05 10:37 | 34.88441 | 33.63367 | 24 ft | 0 kts | 103° |
| 2025-09-05 10:39 | 34.88294 | 33.63511 | 29 ft | 23 kts | 195° |
| 2025-09-05 10:40 | 34.88214 | 33.63424 | 24 ft | 0 kts | 226° |
| 2025-09-05 10:42 | 34.87976 | 33.63130 | 29 ft | 86 kts | 225° |
| 2025-09-05 10:42 | 34.86549 | 33.61336 | 469 ft | 185 kts | 223° |
| 2025-09-05 10:43 | 34.84620 | 33.59002 | 2197 ft | 206 kts | 223° |
| 2025-09-05 10:43 | 34.82382 | 33.56327 | 2987 ft | 242 kts | 219° |
| 2025-09-05 10:44 | 34.79033 | 33.55870 | 4132 ft | 268 kts | 155° |
| 2025-09-05 10:44 | 34.76087 | 33.58783 | 5545 ft | 280 kts | 138° |
| 2025-09-05 10:45 | 34.73205 | 33.62029 | 7147 ft | 286 kts | 138° |
| 2025-09-05 10:45 | 34.70201 | 33.65372 | 8688 ft | 295 kts | 139° |
| 2025-09-05 10:46 | 34.67699 | 33.69279 | 9985 ft | 306 kts | 102° |
| 2025-09-05 10:46 | 34.68814 | 33.74392 | 10507 ft | 348 kts | 50° |
| 2025-09-05 10:47 | 34.72136 | 33.79006 | 11593 ft | 373 kts | 48° |
| 2025-09-05 10:47 | 34.75589 | 33.83866 | 13286 ft | 386 kts | 48° |
| 2025-09-05 10:48 | 34.80904 | 33.91522 | 15798 ft | 404 kts | 49° |
| 2025-09-05 10:49 | 34.84563 | 33.96841 | 17349 ft | 415 kts | 49° |
| 2025-09-05 10:49 | 34.88313 | 34.02302 | 18773 ft | 426 kts | 49° |
| 2025-09-05 10:50 | 34.92147 | 34.07892 | 20199 ft | 434 kts | 49° |
| 2025-09-05 10:50 | 34.96939 | 34.12224 | 21185 ft | 437 kts | 17° |
| 2025-09-05 10:50 | 34.99887 | 34.12993 | 21851 ft | 430 kts | 1° |
| 2025-09-05 10:51 | 35.05931 | 34.13311 | 22891 ft | 440 kts | 359° |
| 2025-09-05 10:52 | 35.14150 | 34.13740 | 24641 ft | 448 kts | 359° |
| 2025-09-05 10:53 | 35.26902 | 34.14550 | 26657 ft | 468 kts | 359° |
| 2025-09-05 10:55 | 35.53748 | 34.16621 | 29825 ft | 503 kts | 12° |
| 2025-09-05 10:57 | 35.70402 | 34.44967 | 32035 ft | 537 kts | 62° |
| 2025-09-05 10:59 | 35.84468 | 34.77666 | 34228 ft | 541 kts | 62° |
| 2025-09-05 11:01 | 35.98504 | 35.10634 | 36339 ft | 544 kts | 62° |
| 2025-09-05 11:03 | 36.12625 | 35.43637 | 37865 ft | 551 kts | 61° |
| 2025-09-05 11:05 | 36.27038 | 35.77912 | 38251 ft | 565 kts | 63° |
| 2025-09-05 11:07 | 36.41166 | 36.12290 | 38821 ft | 541 kts | 64° |
| 2025-09-05 11:09 | 36.54725 | 36.45641 | 38838 ft | 541 kts | 64° |
| 2025-09-05 11:11 | 36.68210 | 36.79151 | 38870 ft | 542 kts | 64° |
| 2025-09-05 11:13 | 36.81626 | 37.12840 | 38912 ft | 543 kts | 64° |
| 2025-09-05 11:15 | 36.94968 | 37.46702 | 38932 ft | 543 kts | 64° |
| 2025-09-05 11:17 | 37.07303 | 37.81249 | 38946 ft | 550 kts | 66° |
| 2025-09-05 11:19 | 37.20067 | 38.16829 | 38941 ft | 566 kts | 66° |
| 2025-09-05 11:21 | 37.32852 | 38.53299 | 38945 ft | 574 kts | 66° |
| 2025-09-05 11:22 | 37.44052 | 38.85446 | 38960 ft | 573 kts | 67° |
| 2025-09-05 11:25 | 37.57627 | 39.27244 | 38956 ft | 572 kts | 72° |
| 2025-09-05 11:26 | 37.68129 | 39.59994 | 38944 ft | 578 kts | 68° |
| 2025-09-05 11:29 | 37.81657 | 40.02522 | 38915 ft | 581 kts | 69° |
| 2025-09-05 11:31 | 37.97594 | 40.37615 | 38912 ft | 578 kts | 50° |
| 2025-09-05 11:33 | 38.17242 | 40.69988 | 38937 ft | 580 kts | 51° |
| 2025-09-05 11:34 | 38.30387 | 41.01168 | 38945 ft | 577 kts | 73° |
| 2025-09-05 11:37 | 38.54979 | 41.32504 | 38980 ft | 561 kts | 30° |
| 2025-09-05 11:38 | 38.75760 | 41.50854 | 39034 ft | 539 kts | 33° |
| 2025-09-05 11:41 | 38.69864 | 41.84803 | 39057 ft | 472 kts | 172° |
| 2025-09-05 11:42 | 38.48333 | 41.83990 | 39032 ft | 443 kts | 192° |
| 2025-09-05 11:45 | 38.30766 | 42.10224 | 38961 ft | 541 kts | 103° |
| 2025-09-05 11:46 | 38.25843 | 42.43037 | 39001 ft | 540 kts | 106° |
| 2025-09-05 11:49 | 38.19277 | 42.85285 | 39071 ft | 542 kts | 106° |
| 2025-09-05 11:50 | 38.14057 | 43.18150 | 39094 ft | 542 kts | 106° |
| 2025-09-05 11:53 | 38.03438 | 43.58156 | 39108 ft | 529 kts | 121° |
| 2025-09-05 11:54 | 37.92826 | 43.87840 | 39118 ft | 527 kts | 121° |
| 2025-09-05 11:57 | 37.79180 | 44.25628 | 39152 ft | 524 kts | 121° |
| 2025-09-05 11:58 | 37.71537 | 44.56445 | 39121 ft | 539 kts | 102° |
| 2025-09-05 12:01 | 37.69141 | 44.99130 | 39046 ft | 541 kts | 97° |
| 2025-09-05 12:02 | 37.75542 | 45.31220 | 39032 ft | 545 kts | 68° |
| 2025-09-05 12:05 | 37.87631 | 45.71519 | 39038 ft | 545 kts | 69° |
| 2025-09-05 12:06 | 37.99891 | 46.00987 | 39063 ft | 541 kts | 44° |
| 2025-09-05 12:09 | 38.23549 | 46.31852 | 39079 ft | 542 kts | 39° |
| 2025-09-05 12:10 | 38.42811 | 46.54907 | 39056 ft | 543 kts | 39° |
| 2025-09-05 12:12 | 38.64693 | 46.81467 | 39016 ft | 543 kts | 39° |
| 2025-09-05 12:14 | 38.86573 | 47.08145 | 39018 ft | 543 kts | 39° |
| 2025-09-05 12:16 | 39.08461 | 47.35037 | 38978 ft | 546 kts | 39° |
| 2025-09-05 12:18 | 39.30419 | 47.62265 | 38945 ft | 549 kts | 39° |
| 2025-09-05 12:20 | 39.52448 | 47.89835 | 36817 ft | 555 kts | 39° |
| 2025-09-05 12:22 | 39.69379 | 48.23829 | 29535 ft | 568 kts | 61° |
| 2025-09-05 12:24 | 39.83052 | 48.58577 | 23807 ft | 512 kts | 61° |
| 2025-09-05 12:25 | 39.85717 | 48.65365 | 22687 ft | 502 kts | 61° |
| 2025-09-05 12:25 | 39.88804 | 48.73252 | 21274 ft | 469 kts | 61° |
| 2025-09-05 12:26 | 39.91652 | 48.80546 | 20030 ft | 443 kts | 61° |
| 2025-09-05 12:26 | 39.94434 | 48.87674 | 18838 ft | 439 kts | 62° |
| 2025-09-05 12:27 | 39.97186 | 48.94745 | 17652 ft | 435 kts | 62° |
| 2025-09-05 12:28 | 40.01250 | 49.05230 | 15907 ft | 428 kts | 62° |
| 2025-09-05 12:28 | 40.02587 | 49.08682 | 15341 ft | 425 kts | 62° |
| 2025-09-05 12:28 | 40.05229 | 49.15519 | 14219 ft | 419 kts | 62° |
| 2025-09-05 12:29 | 40.07825 | 49.22248 | 13136 ft | 412 kts | 62° |
| 2025-09-05 12:29 | 40.10382 | 49.28884 | 12094 ft | 405 kts | 62° |
| 2025-09-05 12:30 | 40.11848 | 49.35589 | 11495 ft | 374 kts | 88° |
| 2025-09-05 12:30 | 40.12090 | 49.42284 | 10726 ft | 364 kts | 86° |
| 2025-09-05 12:31 | 40.12399 | 49.48804 | 9980 ft | 355 kts | 86° |
| 2025-09-05 12:31 | 40.12714 | 49.55005 | 9460 ft | 324 kts | 86° |
| 2025-09-05 12:32 | 40.13128 | 49.63126 | 8367 ft | 281 kts | 86° |
| 2025-09-05 12:32 | 40.13255 | 49.65633 | 8051 ft | 272 kts | 86° |
| 2025-09-05 12:33 | 40.13489 | 49.70325 | 7483 ft | 246 kts | 86° |
| 2025-09-05 12:33 | 40.13531 | 49.74597 | 7059 ft | 230 kts | 109° |
| 2025-09-05 12:34 | 40.11488 | 49.77950 | 6996 ft | 242 kts | 136° |
| 2025-09-05 12:34 | 40.09056 | 49.80940 | 6989 ft | 238 kts | 136° |
| 2025-09-05 12:35 | 40.06677 | 49.83917 | 6996 ft | 235 kts | 135° |
| 2025-09-05 12:36 | 40.04303 | 49.89537 | 6996 ft | 240 kts | 114° |
| 2025-09-05 12:36 | 40.03596 | 49.91498 | 6993 ft | 238 kts | 115° |
| 2025-09-05 12:36 | 40.02167 | 49.95373 | 6994 ft | 236 kts | 115° |
| 2025-09-05 12:37 | 40.01383 | 49.99483 | 7012 ft | 240 kts | 95° |
| 2025-09-05 12:37 | 40.01096 | 50.03820 | 6990 ft | 239 kts | 95° |
| 2025-09-05 12:38 | 40.00767 | 50.08104 | 6994 ft | 237 kts | 96° |
| 2025-09-05 12:38 | 40.00933 | 50.12325 | 7018 ft | 239 kts | 75° |
| 2025-09-05 12:39 | 40.01799 | 50.16529 | 6995 ft | 239 kts | 75° |
| 2025-09-05 12:40 | 40.03000 | 50.22734 | 6993 ft | 232 kts | 73° |
| 2025-09-05 12:40 | 40.04679 | 50.26418 | 6997 ft | 241 kts | 55° |
| 2025-09-05 12:40 | 40.05616 | 50.28205 | 6994 ft | 239 kts | 55° |
| 2025-09-05 12:41 | 40.07578 | 50.31591 | 6988 ft | 232 kts | 34° |
| 2025-09-05 12:41 | 40.10724 | 50.31885 | 6733 ft | 245 kts | 329° |
| 2025-09-05 12:42 | 40.13180 | 50.28951 | 6256 ft | 237 kts | 316° |
| 2025-09-05 12:42 | 40.15492 | 50.25944 | 5765 ft | 232 kts | 316° |
| 2025-09-05 12:43 | 40.17732 | 50.23038 | 5297 ft | 226 kts | 316° |
| 2025-09-05 12:44 | 40.21106 | 50.18684 | 4623 ft | 229 kts | 317° |
| 2025-09-05 12:44 | 40.22230 | 50.17231 | 4396 ft | 225 kts | 317° |
| 2025-09-05 12:44 | 40.24391 | 50.14441 | 3960 ft | 215 kts | 318° |
| 2025-09-05 12:45 | 40.26440 | 50.11794 | 3512 ft | 198 kts | 319° |
| 2025-09-05 12:46 | 40.29182 | 50.08245 | 2958 ft | 178 kts | 320° |
| 2025-09-05 12:46 | 40.30076 | 50.07215 | 2775 ft | 163 kts | 337° |
| 2025-09-05 12:46 | 40.32185 | 50.06765 | 2476 ft | 155 kts | 355° |
| 2025-09-05 12:47 | 40.34260 | 50.06519 | 2153 ft | 147 kts | 1° |
| 2025-09-05 12:48 | 40.37468 | 50.06444 | 1624 ft | 152 kts | 2° |
| 2025-09-05 12:48 | 40.38479 | 50.06430 | 1440 ft | 140 kts | 2° |
| 2025-09-05 12:49 | 40.41400 | 50.06387 | 871 ft | 140 kts | 1° |
| 2025-09-05 12:49 | 40.42368 | 50.06374 | 712 ft | 140 kts | 2° |
| 2025-09-05 12:50 | 40.45285 | 50.06332 | 141 ft | 139 kts | 2° |
| 2025-09-05 12:50 | 40.46241 | 50.06316 | 22 ft | 133 kts | 2° |
| 2025-09-05 12:50 | 40.47459 | 50.06257 | 15 ft | 20 kts | 324° |
| 2025-09-05 12:51 | 40.47433 | 50.06085 | 19 ft | 13 kts | 176° |